Time;durP1;ratioP1;P1;durP2;ratioP2;P2;SDS_P1;SDS_P2;PMS_P1;PMS_P2;Temp;Humidity;BMP_temperature;BMP_pressure;BME280_temperature;BME280_humidity;BME280_pressure;Samples;Min_cycle;Max_cycle;Signal;HPM_P1;HPM_P2
2023/05/12 00:02:24;;;;;;;16.20;9.60;;;16.40;91.60;;;15.54;76.99;100334.72;4985872;28;20160;-89
2023/05/12 00:04:51;;;;;;;12.57;8.68;;;16.40;91.60;;;15.54;76.92;100335.53;4973108;28;20043;-89
2023/05/12 00:07:18;;;;;;;12.75;8.43;;;16.40;91.70;;;15.53;76.84;100327.72;4963581;28;20070;-88
2023/05/12 00:09:45;;;;;;;12.07;8.10;;;16.30;91.60;;;15.52;76.84;100318.84;4988583;28;20062;-89
2023/05/12 00:12:13;;;;;;;12.48;8.10;;;16.30;91.80;;;15.51;76.97;100314.50;4984968;28;20046;-88
2023/05/12 00:14:40;;;;;;;13.05;7.68;;;16.30;91.70;;;15.50;76.96;100314.78;4972367;28;20050;-88
2023/05/12 00:17:09;;;;;;;9.73;6.72;;;16.30;91.70;;;15.50;76.95;100317.47;4978018;28;20529;-88
2023/05/12 00:19:36;;;;;;;11.98;6.30;;;16.30;91.80;;;15.48;77.10;100315.03;4966150;28;20515;-88
2023/05/12 00:22:03;;;;;;;11.25;7.82;;;16.30;91.80;;;15.49;77.12;100303.22;4991479;28;20058;-88
2023/05/12 00:24:30;;;;;;;9.38;6.90;;;16.30;91.90;;;15.48;77.14;100304.28;4987511;28;20149;-88
2023/05/12 00:26:58;;;;;;;12.82;8.85;;;16.30;91.80;;;15.48;77.24;100303.47;4985045;28;20043;-88
2023/05/12 00:29:25;;;;;;;19.10;12.70;;;16.30;91.80;;;15.47;77.20;100302.66;4972251;28;20054;-89
2023/05/12 00:31:52;;;;;;;20.50;14.32;;;16.30;92.20;;;15.45;77.28;100292.13;5001048;28;20077;-88
2023/05/12 00:34:21;;;;;;;23.17;16.08;;;16.20;92.10;;;15.45;77.48;100294.81;4973349;28;20508;-88
2023/05/12 00:36:48;;;;;;;22.83;15.10;;;16.20;92.20;;;15.44;77.76;100293.19;4992989;28;20125;-88
2023/05/12 00:39:15;;;;;;;25.00;16.27;;;16.20;92.40;;;15.42;77.94;100289.97;4987308;28;20050;-87
2023/05/12 00:41:43;;;;;;;26.08;17.42;;;16.20;92.60;;;15.42;78.18;100299.88;4990139;28;20050;-87
2023/05/12 00:44:10;;;;;;;27.05;19.17;;;16.20;92.60;;;15.41;78.15;100299.06;4976647;28;20140;-88
2023/05/12 00:46:38;;;;;;;27.58;19.58;;;16.20;92.70;;;15.39;78.21;100290.44;4973050;28;20129;-88
2023/05/12 00:49:05;;;;;;;27.13;20.33;;;16.10;92.90;;;15.35;78.57;100289.31;4975429;28;20053;-88
2023/05/12 00:51:34;;;;;;;28.98;21.55;;;16.10;93.00;;;15.35;78.82;100294.69;4990257;28;20042;-88
2023/05/12 00:54:02;;;;;;;26.70;20.42;;;16.10;93.40;;;15.35;79.08;100297.38;4996422;28;20136;-87
2023/05/12 00:56:29;;;;;;;33.45;22.08;;;16.10;93.40;;;15.32;79.43;100299.72;4997121;28;20034;-88
2023/05/12 00:58:56;;;;;;;28.55;20.75;;;16.10;93.60;;;15.32;79.32;100295.16;4965467;28;20046;-88
2023/05/12 01:01:24;;;;;;;29.88;22.17;;;16.10;93.60;;;15.33;79.24;100293.31;4969523;28;20078;-87
2023/05/12 01:03:54;;;;;;;32.88;22.35;;;16.10;93.40;;;15.34;79.30;100295.75;4976362;28;20053;-88
2023/05/12 01:06:29;;;;;;;33.75;22.27;;;16.10;93.40;;;15.34;79.45;100297.63;4982089;28;20067;-87
2023/05/12 01:08:58;;;;;;;30.88;21.38;;;16.10;93.60;;;15.34;79.53;100294.94;4997528;28;20054;-87
2023/05/12 01:11:26;;;;;;;31.52;20.60;;;16.10;93.70;;;15.34;79.66;100294.94;5002981;28;20070;-88
2023/05/12 01:13:53;;;;;;;25.98;19.05;;;16.10;93.70;;;15.35;79.69;100297.38;4990767;28;20031;-88
2023/05/12 01:16:25;;;;;;;26.95;19.77;;;16.10;93.80;;;15.37;79.60;100289.06;4971775;28;20722;-88
2023/05/12 01:18:55;;;;;;;26.52;18.33;;;16.10;93.70;;;15.38;79.40;100288.81;4991389;28;20179;-88
2023/05/12 01:21:23;;;;;;;26.45;18.73;;;16.10;93.60;;;15.39;79.41;100286.94;4974779;28;20494;-88
2023/05/12 01:23:59;;;;;;;25.30;17.67;;;16.10;93.80;;;15.40;79.25;100286.69;4989415;28;20042;-88
2023/05/12 01:26:31;;;;;;;22.45;16.63;;;16.20;93.60;;;15.40;79.53;100285.88;4973219;28;20041;-88
2023/05/12 01:29:01;;;;;;;23.33;16.58;;;16.20;93.50;;;15.40;79.35;100286.69;4985799;28;20050;-87
2023/05/12 01:31:29;;;;;;;24.13;16.38;;;16.20;93.60;;;15.40;79.49;100286.69;4997024;28;20049;-88
2023/05/12 01:33:57;;;;;;;20.77;15.93;;;16.20;93.70;;;15.40;79.53;100292.06;4981584;28;20042;-87
2023/05/12 01:36:25;;;;;;;21.42;15.25;;;16.20;93.70;;;15.38;79.58;100294.19;4979822;28;20789;-87
2023/05/12 01:38:52;;;;;;;20.48;12.52;;;16.10;93.80;;;15.36;79.53;100295.50;4979815;28;20403;-88
2023/05/12 01:41:20;;;;;;;18.33;12.15;;;16.10;93.80;;;15.34;79.65;100298.44;4974031;28;20461;-88
2023/05/12 01:43:48;;;;;;;15.23;10.68;;;16.10;93.80;;;15.35;79.61;100307.31;4979737;28;20042;-88
2023/05/12 01:46:16;;;;;;;18.13;11.38;;;16.10;93.90;;;15.35;79.60;100302.75;4976141;28;20101;-87
2023/05/12 01:48:44;;;;;;;16.60;10.52;;;16.10;93.80;;;15.35;79.46;100302.75;4978659;28;20050;-87
2023/05/12 01:51:12;;;;;;;16.30;10.93;;;16.10;93.80;;;15.36;79.48;100312.44;5000220;28;20095;-88
2023/05/12 01:53:39;;;;;;;12.75;7.97;;;16.10;93.60;;;15.38;79.42;100309.50;4970512;28;20042;-88
2023/05/12 01:56:07;;;;;;;10.38;7.25;;;16.10;93.60;;;15.39;79.33;100311.13;4982479;28;20061;-87
2023/05/12 01:58:36;;;;;;;11.32;6.72;;;16.10;93.60;;;15.41;79.18;100317.88;4974388;28;20069;-87
2023/05/12 02:01:05;;;;;;;11.82;7.38;;;16.20;93.40;;;15.40;79.28;100318.13;4982382;28;20054;-86
2023/05/12 02:03:32;;;;;;;10.05;6.25;;;16.20;93.30;;;15.40;79.31;100324.31;4976396;28;20034;-88
2023/05/12 02:05:59;;;;;;;7.85;5.88;;;16.20;93.40;;;15.41;79.10;100325.94;4982702;28;20507;-88
2023/05/12 02:08:26;;;;;;;11.35;7.05;;;16.20;93.20;;;15.43;79.11;100325.72;5006112;28;20116;-87
2023/05/12 02:11:05;;;;;;;8.25;6.10;;;16.20;93.20;;;15.43;79.11;100333.78;4966386;28;20066;-88
2023/05/12 02:13:33;;;;;;;7.65;5.22;;;16.20;93.20;;;15.44;78.96;100335.38;4969587;28;20093;-87
2023/05/12 02:16:01;;;;;;;9.18;5.63;;;16.40;93.20;;;15.44;78.88;100333.50;4985808;28;20058;-88
2023/05/12 02:18:30;;;;;;;11.15;5.85;;;16.20;93.00;;;15.45;78.81;100347.75;4989502;28;20052;-87
2023/05/12 02:20:57;;;;;;;9.55;6.05;;;16.20;93.00;;;15.44;78.78;100348.84;4995133;28;20165;-88
2023/05/12 02:23:25;;;;;;;12.10;7.63;;;16.20;93.00;;;15.43;78.90;100348.03;4973524;28;20137;-88
2023/05/12 02:25:52;;;;;;;11.38;7.43;;;16.20;93.00;;;15.44;78.68;100346.16;4973387;28;20131;-88
2023/05/12 02:28:19;;;;;;;11.45;7.93;;;16.20;92.80;;;15.43;78.47;100345.34;4989044;28;20129;-87
2023/05/12 02:30:47;;;;;;;11.45;7.40;;;16.20;92.80;;;15.43;78.41;100345.34;4973666;28;20056;-88
2023/05/12 02:33:15;;;;;;;11.88;7.40;;;16.20;92.70;;;15.43;78.31;100349.91;4992375;28;20051;-88
2023/05/12 02:35:44;;;;;;;11.85;7.13;;;16.20;92.60;;;15.43;78.29;100356.09;4985685;28;20064;-88
2023/05/12 02:38:12;;;;;;;9.68;7.43;;;16.20;92.60;;;15.42;78.18;100351.78;4976552;28;20050;-88
2023/05/12 02:40:39;;;;;;;9.55;7.22;;;16.20;92.60;;;15.43;78.14;100355.28;4970676;28;20034;-87
2023/05/12 02:43:07;;;;;;;10.13;6.60;;;16.20;92.60;;;15.42;78.29;100362.53;4972794;28;20066;-88
2023/05/12 02:45:35;;;;;;;9.60;6.97;;;16.20;92.60;;;15.41;78.28;100352.81;4983645;28;20313;-87
2023/05/12 02:48:02;;;;;;;12.40;7.38;;;16.20;92.60;;;15.40;77.89;100351.19;4999927;28;20386;-87
2023/05/12 02:50:29;;;;;;;10.43;7.00;;;16.20;92.40;;;15.40;77.90;100355.75;4983833;28;20395;-88
2023/05/12 02:52:58;;;;;;;9.52;6.82;;;16.20;92.40;;;15.40;77.78;100348.50;4994357;28;20054;-88
2023/05/12 02:55:26;;;;;;;10.00;7.35;;;16.20;92.40;;;15.38;77.76;100357.88;4995773;28;20074;-88
2023/05/12 02:57:53;;;;;;;11.30;6.30;;;16.20;92.40;;;15.37;77.82;100357.06;4976706;28;20046;-87
2023/05/12 03:00:21;;;;;;;10.15;6.43;;;16.20;92.30;;;15.36;77.85;100366.16;4972268;28;20101;-87
2023/05/12 03:02:48;;;;;;;10.20;6.00;;;16.20;92.40;;;15.35;77.71;100364.53;5002255;28;20531;-88
2023/05/12 03:05:16;;;;;;;10.70;5.40;;;16.20;92.40;;;15.36;77.65;100359.97;4994806;28;20487;-88
2023/05/12 03:07:43;;;;;;;6.55;4.43;;;16.20;92.30;;;15.33;77.69;100355.94;5001908;28;20073;-88
2023/05/12 03:10:12;;;;;;;9.88;4.72;;;16.20;92.30;;;15.34;77.26;100356.75;4972974;28;20074;-87
2023/05/12 03:12:39;;;;;;;6.68;4.50;;;16.20;92.10;;;15.33;77.30;100355.94;4979985;28;20038;-87
2023/05/12 03:15:08;;;;;;;6.82;4.20;;;16.10;92.10;;;15.32;77.22;100354.28;4991514;28;20091;-87
2023/05/12 03:17:36;;;;;;;5.43;3.92;;;16.10;92.20;;;15.32;77.52;100362.34;4988570;28;20038;-88
2023/05/12 03:20:04;;;;;;;5.88;4.38;;;16.10;92.20;;;15.33;77.42;100358.63;4982330;28;20042;-88
2023/05/12 03:22:31;;;;;;;7.05;4.35;;;16.10;92.20;;;15.32;77.25;100361.53;4990537;28;20045;-88
2023/05/12 03:25:02;;;;;;;5.38;4.13;;;16.10;92.10;;;15.31;77.24;100362.59;4975316;28;20116;-87
2023/05/12 03:27:32;;;;;;;;;;;16.10;92.10;;;15.29;77.13;100364.72;4972328;28;20055;-88
2023/05/12 03:30:00;;;;;;;7.32;4.15;;;16.10;92.10;;;15.28;77.03;100368.47;4983787;28;20370;-87
2023/05/12 03:32:28;;;;;;;7.30;4.07;;;16.10;92.10;;;15.26;76.96;100363.31;4972202;28;20136;-88
2023/05/12 03:34:55;;;;;;;7.68;4.05;;;16.10;92.10;;;15.26;76.86;100365.19;4982077;28;20042;-88
2023/05/12 03:37:22;;;;;;;7.43;3.45;;;16.10;92.00;;;15.24;76.96;100365.47;4962689;28;20129;-87
2023/05/12 03:39:50;;;;;;;5.05;3.38;;;16.10;92.00;;;15.23;76.82;100369.22;4982560;28;20066;-88
2023/05/12 03:42:17;;;;;;;9.95;3.67;;;16.10;91.90;;;15.23;76.61;100371.09;4972465;28;20170;-88
2023/05/12 03:44:45;;;;;;;6.93;3.55;;;16.00;91.80;;;15.21;76.55;100374.00;4995547;28;20074;-88
2023/05/12 03:47:12;;;;;;;6.00;3.53;;;16.00;91.80;;;15.20;76.65;100369.69;4966135;28;20081;-87
2023/05/12 03:49:40;;;;;;;10.75;3.70;;;16.00;91.80;;;15.18;76.45;100374.50;4967351;28;20045;-88
2023/05/12 03:52:07;;;;;;;6.30;4.20;;;16.00;91.70;;;15.17;76.19;100372.84;4986693;28;20058;-91
2023/05/12 03:54:34;;;;;;;6.78;3.80;;;16.00;91.60;;;15.15;76.10;100377.66;4966332;28;20043;-92
2023/05/12 03:57:02;;;;;;;6.40;3.95;;;16.00;91.60;;;15.12;75.92;100373.56;4984300;28;20521;-89
2023/05/12 03:59:31;;;;;;;6.13;3.50;;;16.00;91.50;;;15.11;75.90;100371.16;4970398;28;20439;-90
2023/05/12 04:02:00;;;;;;;7.75;4.07;;;15.90;91.40;;;15.09;75.93;100378.63;4989640;28;20399;-88
2023/05/12 04:04:27;;;;;;;6.88;4.20;;;15.90;91.40;;;15.09;75.73;100378.63;5002773;28;20042;-89
2023/05/12 04:06:55;;;;;;;7.70;4.10;;;15.90;91.40;;;15.07;75.88;100378.06;4980945;28;20077;-88
2023/05/12 04:09:22;;;;;;;8.00;3.80;;;15.90;91.30;;;15.06;75.68;100377.25;4984406;28;20046;-90
2023/05/12 04:11:50;;;;;;;4.50;3.08;;;15.90;91.20;;;15.03;75.49;100382.28;4969812;28;20070;-93
2023/05/12 04:14:18;;;;;;;8.90;3.42;;;15.90;91.20;;;15.03;75.34;100393.88;4982324;28;20034;-93
2023/05/12 04:16:45;;;;;;;5.97;3.30;;;15.90;91.20;;;15.03;75.44;100387.66;4980146;28;20046;-92
2023/05/12 04:19:13;;;;;;;7.65;3.53;;;15.80;91.00;;;15.03;75.66;100390.34;4969031;28;20398;-94
2023/05/12 04:21:41;;;;;;;5.57;3.67;;;15.80;91.10;;;15.02;75.75;100402.13;4999237;28;20495;-91
2023/05/12 04:24:08;;;;;;;8.77;4.32;;;15.80;91.20;;;15.00;75.48;100396.22;4968014;28;20050;-90
2023/05/12 04:26:37;;;;;;;5.80;3.25;;;15.80;91.10;;;15.00;75.40;100397.03;4993230;28;20045;-89
2023/05/12 04:29:04;;;;;;;5.45;3.63;;;15.80;91.00;;;15.00;75.24;100404.25;4971162;28;20046;-92
2023/05/12 04:31:31;;;;;;;6.55;3.70;;;15.80;91.00;;;15.00;75.36;100405.06;4968764;28;20046;-90
2023/05/12 04:33:59;;;;;;;6.82;3.67;;;15.80;91.10;;;15.01;75.28;100416.63;4978559;28;20081;-90
2023/05/12 04:36:28;;;;;;;8.38;3.90;;;15.80;91.10;;;14.99;75.34;100411.50;4986306;28;20043;-91
2023/05/12 04:38:55;;;;;;;7.43;3.70;;;15.80;91.00;;;14.99;75.33;100418.75;4964318;28;20043;-90
2023/05/12 04:41:22;;;;;;;9.48;3.90;;;15.80;91.10;;;14.98;75.39;100414.41;4969444;28;20161;-91
2023/05/12 04:43:50;;;;;;;6.70;3.60;;;15.80;91.20;;;14.99;75.35;100424.13;4970725;28;20054;-87
2023/05/12 04:46:17;;;;;;;6.80;3.80;;;15.80;91.10;;;14.98;75.55;100427.84;4961267;28;20056;-90
2023/05/12 04:54:02;;;;;;;10.50;4.30;;;15.80;91.00;;;14.97;75.19;100434.28;4996950;28;20054;-89
2023/05/12 04:56:29;;;;;;;6.95;3.58;;;15.70;91.00;;;14.98;75.22;100433.22;4993044;28;20044;-90
2023/05/12 04:58:57;;;;;;;5.18;3.50;;;15.70;91.00;;;14.96;75.06;100446.91;5007779;28;20042;-90
2023/05/12 05:01:24;;;;;;;10.57;3.60;;;15.80;90.80;;;14.97;74.96;100450.41;4987334;28;20510;-92
2023/05/12 05:03:51;;;;;;;7.07;3.33;;;15.80;90.80;;;14.98;75.19;100452.03;4989695;28;20042;-90
2023/05/12 05:06:19;;;;;;;6.38;3.72;;;15.80;91.10;;;14.97;75.00;100456.56;4989900;28;20133;-89
2023/05/12 05:08:49;;;;;;;12.23;3.97;;;15.80;90.80;;;14.98;75.14;100474.31;4983270;28;20167;-92
2023/05/12 05:11:18;;;;;;;8.38;3.67;;;15.80;91.00;;;14.99;75.13;100467.91;5016839;28;20544;-91
2023/05/12 05:13:46;;;;;;;8.15;3.88;;;15.80;91.00;;;15.00;75.43;100466.03;5014898;28;20598;-90
2023/05/12 05:16:13;;;;;;;6.07;3.55;;;15.80;91.20;;;15.00;75.34;100484.84;4995343;28;20128;-81
2023/05/12 05:18:45;;;;;;;7.20;3.70;;;15.80;91.00;;;15.00;75.04;100480.28;5011867;28;20040;-83
2023/05/12 05:21:13;;;;;;;8.05;3.30;;;15.80;90.80;;;15.01;75.04;100486.47;5014356;28;20053;-83
2023/05/12 05:23:41;;;;;;;8.23;3.67;;;15.80;91.00;;;15.02;75.15;100488.09;5008945;28;20043;-83
2023/05/12 05:26:09;;;;;;;7.90;3.92;;;15.80;91.00;;;15.03;75.27;100492.41;4985996;28;20058;-82
2023/05/12 05:28:38;;;;;;;7.10;3.55;;;15.80;91.00;;;15.03;74.87;100495.94;4989517;28;20050;-81
2023/05/12 05:31:07;;;;;;;5.95;3.42;;;15.90;90.90;;;15.04;75.01;100494.06;5004031;28;20147;-84
2023/05/12 05:33:34;;;;;;;7.03;3.67;;;15.90;91.00;;;15.04;74.63;100502.13;5014359;28;20068;-83
2023/05/12 05:36:03;;;;;;;7.55;3.50;;;15.80;90.60;;;15.05;74.32;100506.44;4994519;28;20081;-83
2023/05/12 05:38:31;;;;;;;4.45;3.15;;;15.90;90.50;;;15.03;73.28;100516.56;4999422;28;20037;-83
2023/05/12 05:40:58;;;;;;;6.05;3.40;;;15.80;89.40;;;15.01;73.23;100508.75;4990884;28;20058;-83
2023/05/12 05:43:28;;;;;;;5.05;3.30;;;15.80;89.50;;;15.02;72.91;100512.25;4996322;28;20093;-83
2023/05/12 05:45:57;;;;;;;5.82;3.92;;;15.80;89.40;;;14.99;72.39;100518.13;5020813;28;20457;-83
2023/05/12 05:48:25;;;;;;;8.85;4.25;;;15.80;89.00;;;14.99;72.66;100526.19;5009772;28;20041;-80
2023/05/12 05:50:54;;;;;;;7.57;4.22;;;15.80;89.10;;;15.00;73.31;100522.44;5015867;28;20046;-83
2023/05/12 05:53:23;;;;;;;6.45;3.80;;;15.80;89.60;;;14.99;72.23;100510.88;5022860;28;20068;-83
2023/05/12 05:55:52;;;;;;;7.32;4.03;;;15.80;88.80;;;14.99;72.18;100518.13;5011185;28;20038;-83
2023/05/12 05:58:19;;;;;;;7.72;4.03;;;15.80;89.00;;;15.00;72.57;100517.88;5000983;28;20046;-83
2023/05/12 06:00:47;;;;;;;5.82;4.18;;;15.80;89.20;;;15.01;72.87;100524.88;5012264;28;20041;-83
2023/05/12 06:03:16;;;;;;;8.63;4.00;;;15.80;89.30;;;15.04;72.86;100527.09;5015725;28;20580;-83
2023/05/12 06:05:44;;;;;;;6.22;4.53;;;15.80;89.50;;;15.06;73.33;100527.66;5022949;28;20057;-83
2023/05/12 06:08:12;;;;;;;6.63;4.60;;;15.80;89.70;;;15.09;73.55;100532.56;4991334;28;20042;-83
2023/05/12 06:10:39;;;;;;;7.45;4.70;;;15.90;90.00;;;15.12;73.21;100533.94;5001102;28;20095;-83
2023/05/12 06:13:07;;;;;;;9.15;4.35;;;15.90;89.70;;;15.14;73.08;100539.91;5022011;28;20057;-82
2023/05/12 06:15:34;;;;;;;6.65;4.30;;;15.90;89.70;;;15.15;72.56;100538.84;4992721;28;20045;-83
2023/05/12 06:18:01;;;;;;;11.10;4.95;;;15.90;89.40;;;15.14;72.54;100538.03;5000570;28;20061;-83
2023/05/12 06:20:31;;;;;;;7.43;4.35;;;15.90;89.30;;;15.16;72.64;100540.47;4993466;28;20140;-83
2023/05/12 06:22:59;;;;;;;10.65;4.55;;;15.90;89.30;;;15.19;73.01;100546.19;5011851;28;20475;-83
2023/05/12 06:25:26;;;;;;;6.47;4.10;;;16.00;89.50;;;15.22;72.68;100557.50;4987937;28;20042;-83
2023/05/12 06:27:53;;;;;;;6.90;4.38;;;16.00;89.30;;;15.23;72.90;100559.97;5004003;28;20049;-83
2023/05/12 06:30:20;;;;;;;8.07;4.28;;;16.00;89.30;;;15.25;72.56;100557.84;4982186;28;20085;-83
2023/05/12 06:32:47;;;;;;;9.27;4.60;;;16.00;89.10;;;15.25;71.88;100554.34;4975116;28;20145;-83
2023/05/12 06:35:15;;;;;;;7.13;4.28;;;16.00;88.60;;;15.29;72.27;100555.50;4980786;28;20511;-82
2023/05/12 06:37:48;;;;;;;6.88;3.70;;;16.00;88.90;;;15.33;71.79;100553.97;4997669;28;20065;-82
2023/05/12 06:40:15;;;;;;;8.63;3.83;;;16.10;88.50;;;15.34;72.33;100564.47;4994426;28;20152;-83
2023/05/12 06:42:43;;;;;;;8.05;3.90;;;16.10;89.00;;;15.34;71.59;100561.78;5001397;28;20038;-82
2023/05/12 06:45:11;;;;;;;7.22;3.97;;;16.10;88.30;;;15.34;71.78;100556.41;4995362;28;20038;-82
2023/05/12 06:47:39;;;;;;;8.93;4.05;;;16.10;88.70;;;15.34;71.50;100566.34;4978795;28;20077;-82
2023/05/12 06:50:08;;;;;;;5.53;3.80;;;16.10;88.30;;;15.34;71.36;100566.34;4991057;28;20038;-82
2023/05/12 06:52:36;;;;;;;5.32;3.75;;;16.10;88.30;;;15.33;71.42;100575.47;4979686;28;20814;-82
2023/05/12 06:55:05;;;;;;;5.95;3.42;;;16.10;88.30;;;15.32;71.45;100577.31;4989605;28;20406;-82
2023/05/12 06:57:33;;;;;;;9.52;4.30;;;16.10;88.30;;;15.34;71.42;100577.09;5002652;28;20588;-82
2023/05/12 07:00:02;;;;;;;9.35;4.07;;;16.10;88.30;;;15.31;71.40;100589.13;5004564;28;20101;-82
2023/05/12 07:02:29;;;;;;;6.38;3.97;;;16.10;88.30;;;15.33;71.80;100578.97;4996099;28;20411;-82
2023/05/12 07:04:57;;;;;;;6.63;4.13;;;16.10;88.40;;;15.34;71.35;100580.59;4997082;28;20117;-82
2023/05/12 07:07:24;;;;;;;9.52;4.20;;;16.10;88.20;;;15.34;71.11;100582.47;4989521;28;20044;-82
2023/05/12 07:09:51;;;;;;;7.75;4.05;;;16.10;88.10;;;15.32;70.78;100577.31;4991000;28;20497;-82
2023/05/12 07:12:20;;;;;;;6.53;3.78;;;16.10;87.60;;;15.31;70.69;100581.06;4989564;28;20119;-82
2023/05/12 07:14:47;;;;;;;9.23;3.85;;;16.10;87.50;;;15.29;70.37;100596.63;4989423;28;20392;-82
2023/05/12 07:17:14;;;;;;;6.63;3.70;;;16.10;87.40;;;15.29;70.39;100588.56;5008343;28;20121;-82
2023/05/12 07:19:42;;;;;;;9.25;3.85;;;16.10;87.20;;;15.28;70.33;100595.00;4994103;28;20049;-82
2023/05/12 07:22:09;;;;;;;6.30;4.32;;;16.00;87.30;;;15.26;70.68;100591.72;4995102;28;20046;-82
2023/05/12 07:24:37;;;;;;;5.55;3.78;;;16.00;87.60;;;15.26;71.27;100602.47;4993665;28;20038;-82
2023/05/12 07:27:05;;;;;;;7.10;3.60;;;16.00;87.90;;;15.27;71.06;100608.66;5000822;28;20039;-82
2023/05/12 07:29:34;;;;;;;9.43;3.70;;;16.00;87.70;;;15.25;70.65;100606.22;4995922;28;20042;-82
2023/05/12 07:32:01;;;;;;;7.93;3.97;;;16.00;87.50;;;15.25;70.96;100618.84;4989076;28;20052;-82
2023/05/12 07:34:28;;;;;;;7.47;3.67;;;16.00;87.70;;;15.23;70.41;100615.59;4990691;28;20052;-82
2023/05/12 07:36:56;;;;;;;6.90;3.67;;;16.10;87.20;;;15.20;70.52;100617.69;4993728;28;20499;-82
2023/05/12 07:39:23;;;;;;;5.90;3.42;;;16.00;87.40;;;15.22;70.71;100619.31;4997674;28;20065;-82
2023/05/12 07:41:52;;;;;;;5.90;3.50;;;16.00;87.70;;;15.22;70.89;100617.44;4987108;28;20069;-82
2023/05/12 07:44:20;;;;;;;6.25;3.47;;;16.00;87.80;;;15.21;70.58;100618.50;4992947;28;20156;-82
2023/05/12 07:46:48;;;;;;;7.10;3.78;;;16.00;87.30;;;15.21;70.55;100621.19;5003905;28;20042;-82
2023/05/12 07:49:15;;;;;;;7.30;3.63;;;16.00;87.60;;;15.22;70.62;100622.00;4986446;28;20414;-82
2023/05/12 07:51:42;;;;;;;9.13;4.47;;;16.00;87.50;;;15.23;70.86;100621.78;5012822;28;20037;-82
2023/05/12 07:54:10;;;;;;;7.50;4.05;;;16.00;87.70;;;15.23;70.63;100619.09;5004158;28;20048;-82
2023/05/12 07:56:37;;;;;;;6.20;3.92;;;16.00;87.50;;;15.24;70.71;100631.47;5010044;28;20056;-82
2023/05/12 07:59:05;;;;;;;7.32;4.00;;;16.10;87.70;;;15.26;70.93;100633.91;4989856;28;20058;-82
2023/05/12 08:01:32;;;;;;;8.02;4.50;;;16.00;87.80;;;15.27;70.88;100638.22;4972967;28;20038;-82
2023/05/12 08:04:01;;;;;;;12.38;4.20;;;16.00;87.70;;;15.27;70.42;100622.09;5021939;28;20120;-82
2023/05/12 08:06:28;;;;;;;7.85;3.90;;;16.00;87.20;;;15.28;70.63;100632.63;5008448;28;20451;-81
2023/05/12 08:08:56;;;;;;;6.90;3.95;;;16.10;87.70;;;15.28;70.73;100635.31;5001080;28;20663;-81
2023/05/12 08:11:24;;;;;;;10.18;4.55;;;16.10;87.60;;;15.30;70.52;100629.69;5007267;28;20074;-81
2023/05/12 08:13:52;;;;;;;7.57;4.20;;;16.10;87.50;;;15.32;70.68;100630.25;4991274;28;20414;-82
2023/05/12 08:16:19;;;;;;;7.95;4.28;;;16.10;87.50;;;15.32;70.71;100633.75;5001095;28;20534;-82
2023/05/12 08:18:46;;;;;;;8.27;3.90;;;16.10;87.50;;;15.33;70.81;100640.78;4989382;28;20050;-81
2023/05/12 08:21:15;;;;;;;7.68;4.25;;;16.10;87.70;;;15.33;70.28;100635.41;4978087;28;20450;-82
2023/05/12 08:23:43;;;;;;;6.82;3.72;;;16.10;87.10;;;15.34;70.01;100631.66;4995147;28;20054;-81
2023/05/12 08:26:10;;;;;;;8.55;4.07;;;16.10;87.10;;;15.36;70.36;100640.28;5012660;28;20885;-82
2023/05/12 08:28:38;;;;;;;8.30;4.20;;;16.10;87.20;;;15.36;69.89;100640.28;5009057;28;20045;-82
2023/05/12 08:31:05;;;;;;;7.55;4.03;;;16.10;86.70;;;15.34;69.29;100641.59;5004802;28;20065;-83
2023/05/12 08:33:34;;;;;;;7.25;3.72;;;16.10;86.30;;;15.34;69.62;100644.28;5000340;28;20402;-83
2023/05/12 08:36:02;;;;;;;6.28;3.72;;;16.10;86.70;;;15.36;69.93;100637.59;4982822;28;20045;-83
2023/05/12 08:38:32;;;;;;;9.98;4.15;;;16.10;86.90;;;15.41;70.27;100647.63;5005755;28;20397;-83
2023/05/12 08:41:12;;;;;;;6.22;4.15;;;16.20;87.20;;;15.41;69.81;100637.69;5014417;28;20048;-83
2023/05/12 08:43:44;;;;;;;11.10;3.90;;;16.20;86.70;;;15.46;69.83;100642.34;4999296;28;20053;-83
2023/05/12 08:46:12;;;;;;;7.63;3.88;;;16.20;86.80;;;15.45;69.72;100641.53;5009145;28;20074;-83
2023/05/12 08:48:41;;;;;;;7.32;4.00;;;16.20;86.60;;;15.48;69.65;100647.53;5008989;28;20042;-83
2023/05/12 08:51:10;;;;;;;6.15;3.85;;;16.20;86.80;;;15.52;69.80;100657.56;5002165;28;20050;-83
2023/05/12 08:53:41;;;;;;;6.18;4.00;;;16.30;86.70;;;15.53;69.81;100658.38;4993394;28;20050;-83
2023/05/12 08:56:10;;;;;;;8.20;4.00;;;16.30;86.70;;;15.55;69.18;100650.88;5003607;28;20050;-83
2023/05/12 08:58:37;;;;;;;6.75;4.10;;;16.30;86.20;;;15.57;69.10;100657.66;4993431;28;20410;-83
2023/05/12 09:01:06;;;;;;;6.20;3.92;;;16.30;86.30;;;15.61;69.58;100655.28;5002563;28;20049;-82
2023/05/12 09:03:35;;;;;;;6.43;3.83;;;16.40;86.50;;;15.63;69.38;100661.25;5002635;28;20561;-82
2023/05/12 09:06:03;;;;;;;10.73;3.88;;;16.40;86.30;;;15.67;69.43;100660.56;5002951;28;20577;-82
2023/05/12 09:08:31;;;;;;;8.25;3.90;;;16.40;86.30;;;15.71;69.61;100658.19;5007797;28;20046;-82
2023/05/12 09:11:01;;;;;;;6.80;4.00;;;16.50;86.60;;;15.73;69.43;100666.84;5013565;28;20058;-82
2023/05/12 09:13:39;;;;;;;5.13;3.47;;;16.50;86.50;;;15.79;69.75;100659.69;5019035;28;20057;-82
2023/05/12 09:16:11;;;;;;;7.03;3.67;;;16.60;86.70;;;15.81;68.97;100658.41;4997446;28;20049;-82
2023/05/12 09:18:50;;;;;;;7.63;3.95;;;16.60;85.70;;;15.84;68.46;100657.91;5008639;28;20042;-82
2023/05/12 09:21:17;;;;;;;12.93;4.30;;;16.60;85.70;;;15.88;68.26;100663.63;5007585;28;20053;-82
2023/05/12 09:23:56;;;;;;;5.18;3.63;;;16.70;85.20;;;15.90;67.49;100669.56;5007266;28;20054;-82
2023/05/12 09:26:26;;;;;;;9.00;4.10;;;16.70;84.70;;;15.93;68.28;100669.09;5019565;28;20050;-82
2023/05/12 09:28:55;;;;;;;7.17;3.83;;;16.70;85.50;;;15.95;67.97;100670.47;5030953;28;20057;-82
2023/05/12 09:31:24;;;;;;;7.38;3.65;;;16.70;85.10;;;15.96;67.43;100674.00;5024746;28;20112;-82
2023/05/12 09:33:52;;;;;;;6.53;3.55;;;16.80;84.40;;;16.00;67.45;100660.88;4994594;28;20042;-82
2023/05/12 09:36:21;;;;;;;6.72;3.58;;;16.80;84.50;;;16.02;67.19;100664.16;5012460;28;20098;-82
2023/05/12 09:38:59;;;;;;;5.40;3.45;;;16.80;84.30;;;16.04;66.58;100678.16;5016433;28;20060;-82
2023/05/12 09:41:27;;;;;;;7.47;3.35;;;16.80;83.60;;;16.06;66.03;100678.75;5013960;28;20121;-82
2023/05/12 09:43:55;;;;;;;5.18;3.30;;;16.90;83.30;;;16.10;66.49;100672.63;5011977;28;20568;-82
2023/05/12 09:46:24;;;;;;;5.70;3.30;;;16.90;83.50;;;16.14;66.64;100673.75;5025804;28;20982;-81
2023/05/12 09:48:55;;;;;;;7.05;3.78;;;16.90;83.80;;;16.16;65.83;100670.84;4994222;28;20061;-82
2023/05/12 09:51:22;;;;;;;5.53;3.40;;;17.00;82.90;;;16.19;65.75;100673.84;5010054;28;20045;-82
2023/05/12 09:53:49;;;;;;;6.90;3.13;;;17.00;82.70;;;16.20;65.35;100680.88;5009329;28;20046;-82
2023/05/12 09:56:18;;;;;;;5.20;3.47;;;17.00;82.40;;;16.25;65.82;100682.00;5018648;28;20054;-82
2023/05/12 09:58:49;;;;;;;7.07;3.35;;;17.00;82.90;;;16.28;65.64;100682.34;5022097;28;20045;-82
2023/05/12 10:01:18;;;;;;;;;;;17.10;82.70;;;16.28;64.96;100679.66;5031551;28;20049;-83
2023/05/12 10:03:50;;;;;;;5.88;3.50;;;17.10;81.80;;;16.28;64.45;100690.41;5010935;28;19943;-82
2023/05/12 10:06:24;;;;;;;6.80;3.97;;;17.10;81.60;;;16.31;64.45;100678.38;5011966;28;20050;-82
2023/05/12 10:08:58;;;;;;;8.32;3.30;;;17.20;81.60;;;16.35;64.56;100683.03;5011467;28;20829;-82
2023/05/12 10:11:27;;;;;;;7.28;3.20;;;17.10;81.70;;;16.37;64.96;100686.28;5017952;28;20049;-82
2023/05/12 10:13:56;;;;;;;6.25;3.33;;;17.20;82.20;;;16.41;63.68;100681.22;5026327;28;20096;-82
2023/05/12 10:16:24;;;;;;;7.28;3.15;;;17.20;80.70;;;16.42;63.62;100675.59;5031322;28;20042;-82
2023/05/12 10:18:52;;;;;;;6.68;3.05;;;17.30;80.90;;;16.44;63.12;100683.41;5014304;28;20084;-82
2023/05/12 10:21:21;;;;;;;4.82;3.42;;;17.30;80.20;;;16.45;63.89;100687.75;5010598;28;20429;-82